createdAt,value
2023-02-19T00:01:52.270Z,8.14
2023-02-19T00:04:58.244Z,8.14
2023-02-19T00:08:04.762Z,8.06
2023-02-19T00:11:19.202Z,7.99
2023-02-19T00:14:25.869Z,8.00
2023-02-19T00:17:31.628Z,7.88
2023-02-19T00:20:38.240Z,7.84
2023-02-19T00:23:44.402Z,7.88
2023-02-19T00:26:53.731Z,7.90
2023-02-19T00:29:59.494Z,7.84
2023-02-19T00:33:06.276Z,7.88
2023-02-19T00:36:12.504Z,7.87
2023-02-19T00:39:21.573Z,7.81
2023-02-19T00:42:30.050Z,7.77
2023-02-19T00:45:37.063Z,7.83
2023-02-19T00:48:42.861Z,7.86
2023-02-19T00:51:50.489Z,7.88
2023-02-19T00:54:56.834Z,7.89
2023-02-19T00:58:06.036Z,7.90
2023-02-19T01:01:13.864Z,7.88
2023-02-19T01:04:20.553Z,7.79
2023-02-19T01:07:26.514Z,7.77
2023-02-19T01:10:33.099Z,7.81
2023-02-19T01:13:42.127Z,7.80
2023-02-19T01:16:48.992Z,7.82
2023-02-19T01:19:55.980Z,7.78
2023-02-19T01:23:02.640Z,7.78
2023-02-19T01:26:09.942Z,7.76
2023-02-19T01:29:20.260Z,7.72
2023-02-19T01:32:26.335Z,7.71
2023-02-19T01:35:33.134Z,7.66
2023-02-19T01:38:39.012Z,7.57
2023-02-19T01:41:45.945Z,7.52
2023-02-19T01:45:33.497Z,7.51
2023-02-19T01:48:42.997Z,7.50
2023-02-19T01:51:55.845Z,7.52
2023-02-19T01:55:06.309Z,7.51
2023-02-19T01:58:13.577Z,7.49
2023-02-19T02:01:24.131Z,7.48
2023-02-19T02:04:34.276Z,7.46
2023-02-19T02:07:53.455Z,7.44
2023-02-19T02:11:00.960Z,7.45
2023-02-19T02:14:08.768Z,7.46
2023-02-19T02:17:31.587Z,7.42
2023-02-19T02:21:16.202Z,7.39
2023-02-19T02:24:56.070Z,7.40
2023-02-19T02:28:29.114Z,7.45
2023-02-19T02:31:47.099Z,7.42
2023-02-19T02:35:04.209Z,7.42
2023-02-19T02:38:16.698Z,7.37
2023-02-19T02:41:24.213Z,7.35
2023-02-19T02:44:38.436Z,7.33
2023-02-19T02:47:56.068Z,7.31
2023-02-19T02:51:14.083Z,7.23
2023-02-19T02:54:46.907Z,7.25
2023-02-19T02:57:53.753Z,7.25
2023-02-19T03:01:20.410Z,7.24
2023-02-19T03:05:01.117Z,7.23
2023-02-19T03:08:17.244Z,7.30
2023-02-19T03:11:36.952Z,7.33
2023-02-19T03:15:04.451Z,7.35
2023-02-19T03:18:29.625Z,7.33
2023-02-19T03:21:46.519Z,7.43
2023-02-19T03:25:12.528Z,7.51
2023-02-19T03:28:45.683Z,7.50
2023-02-19T03:31:57.922Z,7.61
2023-02-19T03:35:16.819Z,7.71
2023-02-19T03:38:39.833Z,7.74
2023-02-19T03:42:06.025Z,7.74
2023-02-19T03:45:50.405Z,7.72
2023-02-19T03:49:08.442Z,7.72
2023-02-19T03:52:27.328Z,7.76
2023-02-19T03:55:52.235Z,7.74
2023-02-19T03:59:12.422Z,7.75
2023-02-19T04:02:32.910Z,7.81
2023-02-19T04:05:50.020Z,7.83
2023-02-19T04:09:02.757Z,8.03
2023-02-19T04:12:14.068Z,8.06
2023-02-19T04:15:29.608Z,8.08
2023-02-19T04:18:43.949Z,8.07
2023-02-19T04:21:53.528Z,8.07
2023-02-19T04:25:01.126Z,8.07
2023-02-19T04:28:12.473Z,8.07
2023-02-19T04:31:18.622Z,8.07
2023-02-19T04:34:25.306Z,8.06
2023-02-19T04:37:31.365Z,8.01
2023-02-19T04:40:38.198Z,7.86
2023-02-19T04:43:46.779Z,8.01
2023-02-19T04:46:53.519Z,8.03
2023-02-19T04:49:59.274Z,8.00
2023-02-19T04:53:05.800Z,7.93
2023-02-19T04:56:13.560Z,7.88
2023-02-19T04:59:22.765Z,7.75
2023-02-19T05:02:28.677Z,7.81
2023-02-19T05:05:35.187Z,7.78
2023-02-19T05:08:41.186Z,7.65
2023-02-19T05:11:47.783Z,7.66
2023-02-19T05:14:56.249Z,7.62
2023-02-19T05:18:03.029Z,7.66
2023-02-19T05:21:09.532Z,7.73
2023-02-19T05:24:16.293Z,7.75
2023-02-19T05:27:22.195Z,7.83
2023-02-19T05:30:33.438Z,7.90
2023-02-19T05:33:41.551Z,7.98
2023-02-19T05:36:48.034Z,8.03
2023-02-19T05:39:53.878Z,8.11
2023-02-19T05:43:00.539Z,8.15
2023-02-19T05:46:10.578Z,8.19
2023-02-19T05:49:17.255Z,8.21
2023-02-19T05:52:23.315Z,8.17
2023-02-19T05:55:30.015Z,8.16
2023-02-19T05:58:35.763Z,8.05
2023-02-19T06:01:45.090Z,8.15
2023-02-19T06:04:50.866Z,8.15
2023-02-19T06:07:57.464Z,8.06
2023-02-19T06:11:03.240Z,7.94
2023-02-19T06:14:10.344Z,7.87
2023-02-19T06:17:19.203Z,7.82
2023-02-19T06:20:26.390Z,7.75
2023-02-19T06:23:32.408Z,7.75
2023-02-19T06:26:39.621Z,7.73
2023-02-19T06:29:45.475Z,7.77
2023-02-19T06:32:55.833Z,7.82
2023-02-19T06:36:03.403Z,7.90
2023-02-19T06:39:10.284Z,7.95
2023-02-19T06:42:16.167Z,8.00
2023-02-19T06:45:22.676Z,8.02
2023-02-19T06:48:34.685Z,7.98
2023-02-19T06:51:41.198Z,7.96
2023-02-19T06:54:47.664Z,7.96
2023-02-19T06:57:54.394Z,7.89
2023-02-19T07:01:00.239Z,7.87
2023-02-19T07:04:10.504Z,7.77
2023-02-19T07:07:16.393Z,7.67
2023-02-19T07:10:23.036Z,7.55
2023-02-19T07:13:30.374Z,7.33
2023-02-19T07:16:37.347Z,7.27
2023-02-19T07:19:45.829Z,7.20
2023-02-19T07:22:52.344Z,7.24
2023-02-19T07:26:01.244Z,7.22
2023-02-19T07:29:08.068Z,7.23
2023-02-19T07:32:13.958Z,7.23
2023-02-19T07:35:23.227Z,7.25
2023-02-19T07:38:31.833Z,7.28
2023-02-19T07:41:38.381Z,7.34
2023-02-19T07:44:45.357Z,7.47
2023-02-19T07:47:51.957Z,7.57
2023-02-19T07:51:03.774Z,7.58
2023-02-19T07:54:10.445Z,7.61
2023-02-19T07:57:16.259Z,7.65
2023-02-19T08:00:23.235Z,7.63
2023-02-19T08:03:26.467Z,7.66
2023-02-19T08:06:35.891Z,7.68
2023-02-19T08:09:41.712Z,7.68
2023-02-19T08:13:09.868Z,7.67
2023-02-19T08:16:29.617Z,7.73
2023-02-19T08:19:43.972Z,7.79
2023-02-19T08:22:52.436Z,7.92
2023-02-19T08:26:02.880Z,8.05
2023-02-19T08:29:10.662Z,8.10
2023-02-19T08:32:17.227Z,8.20
2023-02-19T08:35:24.767Z,8.25
2023-02-19T08:38:35.939Z,8.24
2023-02-19T08:41:41.669Z,8.20
2023-02-19T08:44:48.486Z,8.15
2023-02-19T08:47:54.246Z,8.18
2023-02-19T08:51:04.816Z,8.03
2023-02-19T08:54:13.246Z,7.95
2023-02-19T08:57:20.001Z,7.88
2023-02-19T09:00:27.487Z,7.86
2023-02-19T09:03:34.527Z,7.68
2023-02-19T09:06:40.668Z,7.55
2023-02-19T09:09:50.148Z,7.46
2023-02-19T09:12:57.079Z,7.47
2023-02-19T09:16:08.858Z,7.40
2023-02-19T09:19:17.091Z,7.35
2023-02-19T09:22:23.693Z,7.37
2023-02-19T09:25:32.216Z,7.40
2023-02-19T09:28:41.889Z,7.37
2023-02-19T09:31:48.675Z,7.35
2023-02-19T09:34:55.691Z,7.36
2023-02-19T09:38:03.574Z,7.38
2023-02-19T09:41:25.771Z,7.37
2023-02-19T09:44:38.275Z,7.33
2023-02-19T09:47:44.888Z,7.35
2023-02-19T09:50:53.464Z,7.35
2023-02-19T09:54:01.924Z,7.37
2023-02-19T09:57:20.824Z,7.28
2023-02-19T10:00:32.868Z,7.29
2023-02-19T10:03:43.526Z,7.21
2023-02-19T10:06:59.134Z,7.09
2023-02-19T10:10:27.589Z,7.08
2023-02-19T10:13:45.666Z,7.01
2023-02-19T10:16:54.029Z,7.02
2023-02-19T10:20:03.506Z,7.01
2023-02-19T10:23:15.412Z,7.08
2023-02-19T10:26:23.312Z,7.15
2023-02-19T10:29:31.646Z,7.22
2023-02-19T10:32:42.268Z,7.20
2023-02-19T10:36:00.389Z,7.17
2023-02-19T10:39:43.890Z,6.95
2023-02-19T10:42:53.462Z,7.01
2023-02-19T10:46:07.781Z,7.08
2023-02-19T10:49:35.695Z,7.02
2023-02-19T10:52:42.580Z,7.08
2023-02-19T10:55:49.627Z,7.27
2023-02-19T10:58:56.816Z,7.46
2023-02-19T11:02:18.478Z,7.48
2023-02-19T11:05:25.590Z,7.38
2023-02-19T11:08:33.984Z,7.23
2023-02-19T11:11:43.480Z,7.33
2023-02-19T11:14:50.684Z,7.55
2023-02-19T11:18:25.124Z,7.63
2023-02-19T11:21:33.818Z,7.73
2023-02-19T11:24:42.390Z,7.68
2023-02-19T11:28:01.147Z,7.64
2023-02-19T11:31:26.595Z,7.66
2023-02-19T11:34:37.711Z,7.55
2023-02-19T11:38:00.100Z,7.54
2023-02-19T11:41:25.894Z,7.49
2023-02-19T11:44:55.392Z,7.28
2023-02-19T11:48:32.796Z,7.21
2023-02-19T11:52:11.057Z,7.06
2023-02-19T11:55:37.264Z,6.96
2023-02-19T11:59:05.086Z,6.94
2023-02-19T12:02:54.370Z,6.82
2023-02-19T12:06:25.972Z,6.84
2023-02-19T12:10:02.153Z,6.73
2023-02-19T12:13:26.629Z,6.85
2023-02-19T12:16:45.871Z,6.85
2023-02-19T12:20:21.724Z,6.76
2023-02-19T12:24:23.773Z,6.72
2023-02-19T12:27:56.031Z,6.68
2023-02-19T12:31:58.434Z,6.68
2023-02-19T12:35:40.555Z,6.56
2023-02-19T12:38:57.977Z,6.67
2023-02-19T12:42:24.643Z,6.59
2023-02-19T12:45:41.892Z,6.68
2023-02-19T12:49:01.685Z,6.64
2023-02-19T12:52:19.778Z,6.51
2023-02-19T12:55:34.056Z,6.17
2023-02-19T12:58:48.035Z,6.04
2023-02-19T13:02:15.726Z,6.08
2023-02-19T13:05:41.173Z,6.06
2023-02-19T13:09:07.572Z,5.96
2023-02-19T13:12:27.121Z,5.83
2023-02-19T13:15:44.535Z,5.80
2023-02-19T13:18:58.867Z,5.68
2023-02-19T13:22:38.653Z,5.78
2023-02-19T13:26:11.486Z,5.86
2023-02-19T13:29:44.982Z,5.93
2023-02-19T13:33:07.063Z,5.86
2023-02-19T13:36:28.770Z,6.01
2023-02-19T13:39:35.166Z,6.00
2023-02-19T13:42:42.577Z,5.93
2023-02-19T13:45:57.169Z,5.94
2023-02-19T13:49:45.741Z,5.81
2023-02-19T13:52:55.289Z,5.81
2023-02-19T13:56:02.055Z,5.85
2023-02-19T13:59:36.608Z,5.98
2023-02-19T14:02:43.486Z,6.14
2023-02-19T14:06:09.285Z,6.19
2023-02-19T14:09:50.385Z,6.18
2023-02-19T14:12:56.176Z,5.97
2023-02-19T14:16:02.806Z,6.02
2023-02-19T14:19:17.602Z,6.02
2023-02-19T14:23:11.501Z,6.24
2023-02-19T14:26:23.043Z,6.20
2023-02-19T14:29:32.587Z,6.07
2023-02-19T14:32:39.205Z,6.00
2023-02-19T14:35:50.484Z,6.15
2023-02-19T14:39:02.970Z,6.05
2023-02-19T14:42:25.215Z,5.97
2023-02-19T14:45:40.392Z,5.88
2023-02-19T14:48:52.264Z,5.81
2023-02-19T14:52:06.474Z,5.82
2023-02-19T14:55:28.918Z,5.71
2023-02-19T14:58:40.982Z,5.57
2023-02-19T15:01:47.781Z,5.42
2023-02-19T15:04:53.707Z,5.41
2023-02-19T15:08:06.048Z,5.35
2023-02-19T15:11:21.796Z,5.26
2023-02-19T15:14:32.442Z,5.10
2023-02-19T15:17:44.562Z,5.12
2023-02-19T15:21:01.120Z,5.03
2023-02-19T15:24:10.619Z,4.93
2023-02-19T15:27:23.451Z,4.96
2023-02-19T15:30:32.903Z,4.88
2023-02-19T15:33:42.047Z,4.79
2023-02-19T15:36:49.837Z,4.76
2023-02-19T15:39:59.552Z,4.69
2023-02-19T15:43:05.881Z,4.63
2023-02-19T15:46:23.548Z,4.64
2023-02-19T15:49:45.126Z,4.52
2023-02-19T15:53:03.900Z,4.58
2023-02-19T15:56:19.098Z,4.60
2023-02-19T15:59:36.856Z,4.64
2023-02-19T16:02:49.461Z,4.46
2023-02-19T16:06:06.011Z,4.25
2023-02-19T16:09:26.171Z,4.30
2023-02-19T16:12:34.896Z,4.29
2023-02-19T16:15:43.873Z,4.11
2023-02-19T16:18:56.871Z,4.04
2023-02-19T16:22:04.732Z,4.12
2023-02-19T16:25:28.086Z,4.04
2023-02-19T16:28:42.262Z,4.09
2023-02-19T16:31:53.713Z,4.23
2023-02-19T16:35:02.432Z,4.40
2023-02-19T16:38:24.402Z,4.34
2023-02-19T16:41:31.143Z,4.14
2023-02-19T16:44:39.062Z,4.19
2023-02-19T16:47:48.608Z,4.21
2023-02-19T16:50:57.622Z,4.26
2023-02-19T16:54:04.756Z,4.28
2023-02-19T16:57:12.717Z,4.22
2023-02-19T17:00:22.515Z,4.22
2023-02-19T17:03:29.442Z,4.24
2023-02-19T17:06:39.844Z,4.19
2023-02-19T17:09:47.821Z,4.23
2023-02-19T17:12:56.328Z,4.22
2023-02-19T17:16:03.241Z,4.35
2023-02-19T17:19:16.965Z,4.38
2023-02-19T17:22:26.862Z,4.52
2023-02-19T17:25:33.777Z,4.55
2023-02-19T17:28:41.476Z,4.54
2023-02-19T17:31:48.837Z,4.59
2023-02-19T17:34:55.109Z,4.56
2023-02-19T17:38:09.739Z,4.53
2023-02-19T17:41:15.721Z,4.32
2023-02-19T17:44:22.531Z,4.26
2023-02-19T17:47:28.587Z,4.17
2023-02-19T17:50:36.103Z,4.00
2023-02-19T17:53:46.670Z,3.89
2023-02-19T17:56:53.863Z,4.03
2023-02-19T17:59:59.876Z,4.15
2023-02-19T18:03:07.631Z,4.23
2023-02-19T18:06:14.269Z,4.27
2023-02-19T18:09:23.924Z,4.20
2023-02-19T18:12:29.814Z,4.14
2023-02-19T18:15:36.735Z,4.04
2023-02-19T18:18:44.563Z,4.01
2023-02-19T18:21:51.211Z,3.95
2023-02-19T18:24:59.802Z,4.00
2023-02-19T18:28:06.719Z,4.00
2023-02-19T18:31:15.330Z,4.05
2023-02-19T18:34:23.276Z,3.95
2023-02-19T18:37:31.903Z,4.00
2023-02-19T18:40:41.715Z,4.03
2023-02-19T18:43:51.034Z,3.95
2023-02-19T18:47:02.600Z,3.75
2023-02-19T18:50:13.536Z,3.87
2023-02-19T18:53:20.428Z,3.85
2023-02-19T18:56:29.539Z,3.80
2023-02-19T18:59:36.585Z,3.72
2023-02-19T19:02:48.994Z,3.65
2023-02-19T19:05:58.696Z,3.57
2023-02-19T19:09:06.492Z,3.49
2023-02-19T19:12:16.500Z,3.46
2023-02-19T19:15:22.683Z,3.49
2023-02-19T19:18:31.405Z,3.46
2023-02-19T19:21:39.288Z,3.36
2023-02-19T19:24:46.869Z,3.32
2023-02-19T19:27:59.195Z,3.29
2023-02-19T19:31:06.017Z,3.26
2023-02-19T19:34:12.379Z,3.21
2023-02-19T19:37:19.443Z,3.08
2023-02-19T19:40:25.406Z,3.18
2023-02-19T19:43:36.783Z,3.17
2023-02-19T19:46:48.662Z,3.03
2023-02-19T19:49:55.422Z,3.09
2023-02-19T19:53:01.354Z,3.04
2023-02-19T19:56:09.665Z,3.03
2023-02-19T19:59:20.373Z,3.08
2023-02-19T20:02:28.989Z,3.08
2023-02-19T20:05:35.077Z,3.18
2023-02-19T20:08:43.958Z,3.22
2023-02-19T20:11:52.995Z,3.28
2023-02-19T20:15:03.359Z,3.23
2023-02-19T20:18:09.523Z,3.28
2023-02-19T20:21:16.312Z,3.20
2023-02-19T20:24:26.515Z,3.19
2023-02-19T20:27:33.185Z,3.12
2023-02-19T20:30:42.286Z,3.08
2023-02-19T20:33:51.696Z,3.06
2023-02-19T20:37:00.193Z,2.98
2023-02-19T20:40:09.330Z,3.16
2023-02-19T20:43:17.859Z,3.16
2023-02-19T20:46:27.116Z,3.19
2023-02-19T20:49:35.417Z,3.28
2023-02-19T20:52:42.975Z,3.28
2023-02-19T20:55:48.823Z,3.29
2023-02-19T20:58:55.977Z,3.28
2023-02-19T21:02:05.471Z,3.23
2023-02-19T21:05:13.754Z,3.26
2023-02-19T21:08:19.972Z,3.25
2023-02-19T21:11:26.573Z,3.26
2023-02-19T21:14:32.439Z,3.25
2023-02-19T21:17:41.798Z,3.24
2023-02-19T21:20:48.130Z,3.18
2023-02-19T21:23:54.954Z,3.08
2023-02-19T21:27:00.782Z,2.97
2023-02-19T21:30:09.622Z,2.95
2023-02-19T21:33:18.448Z,3.00
2023-02-19T21:36:26.667Z,2.98
2023-02-19T21:39:33.688Z,2.97
2023-02-19T21:42:40.397Z,2.97
2023-02-19T21:45:46.578Z,2.90
2023-02-19T21:48:58.554Z,2.84
2023-02-19T21:52:04.289Z,2.79
2023-02-19T21:55:11.400Z,2.77
2023-02-19T21:58:17.613Z,2.77
2023-02-19T22:01:26.213Z,2.63
2023-02-19T22:04:34.536Z,2.73
2023-02-19T22:07:41.824Z,2.73
2023-02-19T22:10:48.120Z,2.75
2023-02-19T22:13:55.449Z,2.81
2023-02-19T22:17:01.422Z,2.79
2023-02-19T22:20:11.993Z,2.81
2023-02-19T22:23:17.980Z,2.84
2023-02-19T22:26:28.222Z,2.82
2023-02-19T22:29:34.379Z,2.81
2023-02-19T22:32:41.154Z,2.74
2023-02-19T22:35:49.848Z,2.80
2023-02-19T22:38:57.949Z,2.72
2023-02-19T22:42:03.968Z,2.70
2023-02-19T22:45:13.825Z,2.75
2023-02-19T22:48:29.511Z,2.77
2023-02-19T22:51:40.483Z,2.77
2023-02-19T22:54:46.865Z,2.72
2023-02-19T22:57:53.635Z,2.72
2023-02-19T23:00:59.448Z,2.68
2023-02-19T23:04:06.227Z,2.63
2023-02-19T23:07:14.695Z,2.58
2023-02-19T23:10:21.413Z,2.59
2023-02-19T23:13:30.462Z,2.53
2023-02-19T23:16:38.981Z,2.52
2023-02-19T23:19:51.301Z,2.48
2023-02-19T23:23:01.037Z,2.52
2023-02-19T23:26:08.764Z,2.54
2023-02-19T23:29:19.691Z,2.57
2023-02-19T23:32:28.409Z,2.65
2023-02-19T23:35:35.305Z,2.63
2023-02-19T23:38:46.057Z,2.70
2023-02-19T23:41:55.403Z,2.75
2023-02-19T23:45:01.675Z,2.78
2023-02-19T23:48:08.365Z,2.80
2023-02-19T23:51:14.558Z,2.83
2023-02-19T23:54:23.746Z,2.85
2023-02-19T23:57:29.571Z,2.90
